Time;durP1;ratioP1;P1;durP2;ratioP2;P2;SDS_P1;SDS_P2;PMS_P1;PMS_P2;Temp;Humidity;BMP_temperature;BMP_pressure;BME280_temperature;BME280_humidity;BME280_pressure;Samples;Min_cycle;Max_cycle;Signal;HPM_P1;HPM_P2
2024/03/04 00:01:24;;;;;;;5.88;2.45;;;;;;;;;;5078639;28;20033;-69
2024/03/04 00:03:49;;;;;;;7.57;2.58;;;;;;;;;;5085500;28;20040;-71
2024/03/04 00:06:14;;;;;;;4.38;3.00;;;;;;;;;;5080886;28;20123;-70
2024/03/04 00:08:40;;;;;;;4.30;2.45;;;;;;;;;;5072892;28;20099;-71
2024/03/04 00:11:05;;;;;;;4.20;2.40;;;;;;;;;;5073108;28;20131;-69
2024/03/04 00:13:31;;;;;;;3.20;2.45;;;;;;;;;;5076884;28;20043;-70
2024/03/04 00:15:57;;;;;;;5.78;2.22;;;;;;;;;;5082455;28;20043;-69
2024/03/04 00:18:23;;;;;;;4.95;2.22;;;;;;;;;;5075349;28;20669;-69
2024/03/04 00:20:49;;;;;;;8.35;2.90;;;;;;;;;;5082030;28;20096;-70
2024/03/04 00:23:14;;;;;;;7.97;3.17;;;;;;;;;;5086214;28;20107;-69
2024/03/04 00:25:40;;;;;;;4.22;2.50;;;;;;;;;;5083079;28;20036;-69
2024/03/04 00:28:05;;;;;;;4.82;2.88;;;;;;;;;;5083297;28;20032;-70
2024/03/04 00:30:30;;;;;;;4.47;2.40;;;;;;;;;;5078512;28;20489;-69
2024/03/04 00:32:57;;;;;;;4.80;2.75;;;;;;;;;;5073206;28;20612;-69
2024/03/04 00:35:23;;;;;;;5.40;3.03;;;;;;;;;;5072319;28;20039;-68
2024/03/04 00:37:48;;;;;;;4.38;2.20;;;;;;;;;;5078575;28;20406;-69
2024/03/04 00:40:14;;;;;;;5.32;1.98;;;;;;;;;;5079239;28;20028;-68
2024/03/04 00:42:40;;;;;;;7.72;2.35;;;;;;;;;;5081766;28;20039;-69
2024/03/04 00:45:06;;;;;;;3.92;2.25;;;;;;;;;;5084542;28;20028;-69
2024/03/04 00:47:32;;;;;;;4.13;2.80;;;;;;;;;;5088835;28;20566;-68
2024/03/04 00:49:57;;;;;;;4.18;2.70;;;;;;;;;;5080048;28;20052;-69
2024/03/04 00:52:23;;;;;;;5.60;2.90;;;;;;;;;;5086129;28;20032;-68
2024/03/04 00:54:49;;;;;;;5.05;2.50;;;;;;;;;;5083231;28;20098;-68
2024/03/04 00:57:15;;;;;;;3.72;2.35;;;;;;;;;;5084438;28;20032;-70
2024/03/04 00:59:40;;;;;;;7.88;2.63;;;;;;;;;;5077982;28;20053;-68
2024/03/04 01:02:05;;;;;;;5.05;2.95;;;;;;;;;;5076094;28;20029;-69
2024/03/04 01:04:31;;;;;;;6.13;2.88;;;;;;;;;;5084669;28;20046;-68
2024/03/04 01:06:57;;;;;;;3.75;2.17;;;;;;;;;;5083781;28;20052;-69
2024/03/04 01:09:22;;;;;;;3.78;2.08;;;;;;;;;;5087569;28;20043;-68
2024/03/04 01:11:47;;;;;;;6.68;2.42;;;;;;;;;;5085661;28;20518;-69
2024/03/04 01:14:13;;;;;;;3.85;1.70;;;;;;;;;;5083808;28;20082;-69
2024/03/04 01:16:41;;;;;;;6.15;2.60;;;;;;;;;;5076025;28;20068;-69
2024/03/04 01:19:07;;;;;;;3.70;2.55;;;;;;;;;;5081735;28;20483;-68
2024/03/04 01:21:32;;;;;;;3.60;2.05;;;;;;;;;;5085722;28;20032;-68
2024/03/04 01:23:58;;;;;;;9.90;2.45;;;;;;;;;;5086183;28;20380;-68
2024/03/04 01:26:23;;;;;;;4.05;2.35;;;;;;;;;;5081757;28;20075;-68
2024/03/04 01:28:49;;;;;;;5.75;2.72;;;;;;;;;;5078390;28;20081;-68
2024/03/04 01:31:15;;;;;;;5.53;2.63;;;;;;;;;;5079680;28;20034;-69
2024/03/04 01:33:45;;;;;;;7.32;3.08;;;;;;;;;;5079934;28;20036;-69
2024/03/04 01:36:11;;;;;;;4.55;3.03;;;;;;;;;;5076811;28;20020;-69
2024/03/04 01:38:37;;;;;;;4.43;2.38;;;;;;;;;;5076055;28;20036;-68
2024/03/04 01:41:02;;;;;;;9.63;1.98;;;;;;;;;;5078656;28;20166;-68
2024/03/04 01:43:27;;;;;;;4.50;2.35;;;;;;;;;;5081120;28;20067;-69
2024/03/04 01:45:53;;;;;;;6.20;2.90;;;;;;;;;;5081090;28;20032;-69
2024/03/04 01:48:18;;;;;;;4.47;2.42;;;;;;;;;;5084378;28;20518;-68
2024/03/04 01:50:44;;;;;;;5.88;2.85;;;;;;;;;;5072671;28;20661;-69
2024/03/04 01:53:10;;;;;;;4.20;1.90;;;;;;;;;;5070618;28;20661;-68
2024/03/04 01:55:38;;;;;;;2.83;1.80;;;;;;;;;;5074547;28;20129;-69
2024/03/04 01:58:05;;;;;;;6.18;2.10;;;;;;;;;;5071666;28;20031;-68
2024/03/04 02:00:32;;;;;;;3.67;2.55;;;;;;;;;;5081827;28;20131;-69
2024/03/04 02:02:58;;;;;;;2.63;1.70;;;;;;;;;;5082722;28;20040;-70
2024/03/04 02:05:24;;;;;;;7.25;2.85;;;;;;;;;;5077612;28;20020;-69
2024/03/04 02:07:50;;;;;;;4.55;2.63;;;;;;;;;;5079982;28;20085;-69
2024/03/04 02:10:15;;;;;;;2.88;1.73;;;;;;;;;;5083297;28;20090;-69
2024/03/04 02:12:41;;;;;;;4.85;2.63;;;;;;;;;;5084077;28;20028;-68
2024/03/04 02:15:06;;;;;;;4.53;2.22;;;;;;;;;;5073406;28;20403;-69
2024/03/04 02:17:32;;;;;;;6.15;2.38;;;;;;;;;;5078638;28;20044;-68
2024/03/04 02:20:18;;;;;;;5.93;2.05;;;;;;;;;;5076943;28;20070;-69
2024/03/04 02:22:43;;;;;;;4.07;1.85;;;;;;;;;;5069813;28;20446;-68
2024/03/04 02:25:11;;;;;;;3.42;2.10;;;;;;;;;;5086969;28;20028;-68
2024/03/04 02:27:38;;;;;;;3.00;1.83;;;;;;;;;;5077350;28;20075;-68
2024/03/04 02:30:09;;;;;;;3.63;2.05;;;;;;;;;;5079023;28;20051;-68
2024/03/04 02:32:35;;;;;;;2.65;1.70;;;;;;;;;;5077320;28;20040;-69
2024/03/04 02:35:07;;;;;;;7.47;2.45;;;;;;;;;;5089601;28;20127;-68
2024/03/04 02:37:34;;;;;;;2.92;1.58;;;;;;;;;;5086725;28;20446;-68
2024/03/04 02:40:07;;;;;;;3.67;1.85;;;;;;;;;;5070203;28;20047;-68
2024/03/04 02:42:36;;;;;;;3.90;2.50;;;;;;;;;;5072079;28;20062;-69
2024/03/04 02:45:01;;;;;;;5.70;2.30;;;;;;;;;;5074054;28;20514;-69
2024/03/04 02:47:27;;;;;;;2.80;1.70;;;;;;;;;;5082022;28;20071;-68
2024/03/04 02:49:52;;;;;;;5.75;2.45;;;;;;;;;;5080295;28;20028;-68
2024/03/04 02:52:17;;;;;;;4.18;1.95;;;;;;;;;;5076665;28;20111;-68
2024/03/04 02:54:43;;;;;;;5.25;2.40;;;;;;;;;;5077042;28;20033;-68
2024/03/04 02:57:10;;;;;;;3.70;1.90;;;;;;;;;;5077569;28;20111;-68
2024/03/04 02:59:35;;;;;;;2.20;1.45;;;;;;;;;;5083174;28;20048;-69
2024/03/04 03:02:01;;;;;;;5.30;2.28;;;;;;;;;;5072511;28;20032;-69
2024/03/04 03:04:26;;;;;;;3.45;2.10;;;;;;;;;;5070495;28;20042;-68
2024/03/04 03:06:52;;;;;;;8.45;1.88;;;;;;;;;;5072022;28;20029;-68
2024/03/04 03:09:18;;;;;;;2.55;1.60;;;;;;;;;;5080729;28;20032;-68
2024/03/04 03:11:43;;;;;;;6.55;2.55;;;;;;;;;;5082718;28;20563;-68
2024/03/04 03:14:09;;;;;;;7.82;2.17;;;;;;;;;;5072706;28;20103;-68
2024/03/04 03:16:34;;;;;;;6.93;2.50;;;;;;;;;;5079796;28;20062;-67
2024/03/04 03:19:00;;;;;;;8.63;2.38;;;;;;;;;;5084406;28;20055;-67
2024/03/04 03:21:28;;;;;;;5.03;2.15;;;;;;;;;;5080205;28;20078;-68
2024/03/04 03:23:55;;;;;;;4.30;2.05;;;;;;;;;;5077973;28;20116;-67
2024/03/04 03:26:22;;;;;;;2.25;1.73;;;;;;;;;;5077172;28;20036;-68
2024/03/04 03:28:47;;;;;;;3.17;1.65;;;;;;;;;;5074029;28;20479;-67
2024/03/04 03:31:13;;;;;;;2.70;1.90;;;;;;;;;;5080346;28;20043;-68
2024/03/04 03:33:38;;;;;;;2.92;1.80;;;;;;;;;;5085187;28;20040;-68
2024/03/04 03:36:05;;;;;;;6.05;2.25;;;;;;;;;;5086862;28;20155;-66
2024/03/04 03:38:31;;;;;;;13.55;2.65;;;;;;;;;;5087836;28;20104;-68
2024/03/04 03:40:56;;;;;;;12.35;2.22;;;;;;;;;;5090914;28;20043;-67
2024/03/04 03:43:21;;;;;;;5.10;2.47;;;;;;;;;;5085860;28;20375;-68
2024/03/04 03:45:47;;;;;;;2.88;1.88;;;;;;;;;;5081206;28;20440;-67
2024/03/04 03:48:16;;;;;;;5.30;3.05;;;;;;;;;;5086982;28;20036;-68
2024/03/04 03:50:41;;;;;;;3.45;1.95;;;;;;;;;;5090301;28;20115;-68
2024/03/04 03:53:06;;;;;;;3.88;2.45;;;;;;;;;;5080262;28;20684;-67
2024/03/04 03:55:32;;;;;;;4.90;1.90;;;;;;;;;;5082099;28;20044;-67
2024/03/04 03:57:57;;;;;;;3.60;1.85;;;;;;;;;;5084196;28;20035;-67
2024/03/04 04:00:23;;;;;;;4.68;2.03;;;;;;;;;;5078692;28;20040;-70
2024/03/04 04:02:48;;;;;;;11.02;2.35;;;;;;;;;;5084319;28;20036;-69
2024/03/04 04:05:14;;;;;;;2.67;1.65;;;;;;;;;;5076470;28;20020;-69
2024/03/04 04:07:39;;;;;;;2.63;1.90;;;;;;;;;;5075087;28;20469;-67
2024/03/04 04:10:05;;;;;;;3.47;1.90;;;;;;;;;;5083003;28;20112;-67
2024/03/04 04:12:30;;;;;;;2.60;1.80;;;;;;;;;;5090652;28;20035;-67
2024/03/04 04:14:56;;;;;;;5.47;2.28;;;;;;;;;;5076460;28;20090;-67
2024/03/04 04:17:22;;;;;;;4.05;2.10;;;;;;;;;;5091921;28;20032;-66
2024/03/04 04:19:47;;;;;;;3.05;1.40;;;;;;;;;;5080112;28;20036;-67
2024/03/04 04:22:12;;;;;;;4.28;2.00;;;;;;;;;;5080058;28;20381;-66
2024/03/04 04:24:38;;;;;;;2.78;1.73;;;;;;;;;;5076966;28;20112;-66
2024/03/04 04:27:04;;;;;;;2.70;1.70;;;;;;;;;;5085836;28;20036;-67
2024/03/04 04:29:29;;;;;;;1.50;1.20;;;;;;;;;;5079274;28;20119;-66
2024/03/04 04:31:55;;;;;;;6.38;2.13;;;;;;;;;;5076193;28;20468;-67
2024/03/04 04:34:20;;;;;;;3.40;1.90;;;;;;;;;;5073769;28;20372;-67
2024/03/04 04:36:49;;;;;;;2.50;1.70;;;;;;;;;;5089584;28;20734;-67
2024/03/04 04:39:15;;;;;;;3.03;1.52;;;;;;;;;;5081506;28;20036;-67
2024/03/04 04:41:40;;;;;;;5.30;1.67;;;;;;;;;;5079730;28;20117;-67
2024/03/04 04:44:05;;;;;;;3.72;2.42;;;;;;;;;;5072478;28;20040;-67
2024/03/04 04:46:31;;;;;;;3.58;2.03;;;;;;;;;;5077241;28;20037;-67
2024/03/04 04:48:57;;;;;;;3.83;2.28;;;;;;;;;;5079400;28;20058;-67
2024/03/04 04:51:22;;;;;;;1.73;1.25;;;;;;;;;;5072810;28;20533;-68
2024/03/04 04:53:48;;;;;;;2.63;1.63;;;;;;;;;;5079015;28;20036;-66
2024/03/04 04:56:17;;;;;;;10.70;2.00;;;;;;;;;;5081617;28;20043;-67
2024/03/04 04:58:42;;;;;;;2.75;1.85;;;;;;;;;;5073096;28;20044;-68
2024/03/04 05:01:08;;;;;;;4.60;2.20;;;;;;;;;;5081444;28;20090;-67
2024/03/04 05:03:33;;;;;;;2.58;1.80;;;;;;;;;;5076882;28;20076;-67
2024/03/04 05:06:00;;;;;;;2.80;2.22;;;;;;;;;;5071480;28;20416;-66
2024/03/04 05:08:25;;;;;;;4.15;1.98;;;;;;;;;;5088803;28;20040;-68
2024/03/04 05:10:50;;;;;;;4.47;2.25;;;;;;;;;;5087051;28;20388;-67
2024/03/04 05:13:16;;;;;;;3.17;1.70;;;;;;;;;;5090479;28;20038;-66
2024/03/04 05:15:42;;;;;;;2.28;1.30;;;;;;;;;;5091599;28;20118;-66
2024/03/04 05:18:09;;;;;;;1.73;1.35;;;;;;;;;;5090228;28;20378;-67
2024/03/04 05:20:35;;;;;;;2.10;1.35;;;;;;;;;;5090329;28;20071;-66
2024/03/04 05:23:01;;;;;;;4.05;1.95;;;;;;;;;;5086310;28;20059;-67
2024/03/04 05:25:26;;;;;;;2.70;1.50;;;;;;;;;;5086702;28;20201;-67
2024/03/04 05:27:51;;;;;;;16.58;2.53;;;;;;;;;;5087907;28;20703;-67
2024/03/04 05:30:17;;;;;;;5.75;1.85;;;;;;;;;;5080945;28;20473;-67
2024/03/04 05:32:43;;;;;;;4.85;2.03;;;;;;;;;;5083713;28;20031;-67
2024/03/04 05:35:10;;;;;;;2.83;2.33;;;;;;;;;;5076671;28;20041;-67
2024/03/04 05:37:36;;;;;;;9.73;2.13;;;;;;;;;;5086078;28;20043;-68
2024/03/04 05:40:03;;;;;;;3.97;2.10;;;;;;;;;;5078014;28;20093;-67
2024/03/04 05:42:29;;;;;;;2.80;1.48;;;;;;;;;;5073322;28;20048;-67
2024/03/04 05:44:54;;;;;;;6.80;1.70;;;;;;;;;;5072283;28;20039;-68
2024/03/04 05:47:19;;;;;;;3.58;1.58;;;;;;;;;;5085776;28;20027;-67
2024/03/04 05:49:45;;;;;;;4.30;2.15;;;;;;;;;;5076154;28;20062;-67
2024/03/04 05:52:10;;;;;;;1.92;1.40;;;;;;;;;;5082626;28;20070;-66
2024/03/04 05:54:35;;;;;;;2.47;1.80;;;;;;;;;;5080316;28;20163;-66
2024/03/04 05:57:01;;;;;;;3.33;2.13;;;;;;;;;;5079731;28;20042;-67
2024/03/04 05:59:26;;;;;;;6.88;1.38;;;;;;;;;;5080289;28;20052;-68
2024/03/04 06:01:52;;;;;;;5.18;2.45;;;;;;;;;;5075322;28;20510;-68
2024/03/04 06:04:17;;;;;;;3.40;2.10;;;;;;;;;;5082308;28;20039;-67
2024/03/04 06:06:43;;;;;;;1.85;1.30;;;;;;;;;;5075336;28;20047;-66
2024/03/04 06:09:08;;;;;;;2.45;1.60;;;;;;;;;;5080093;28;20035;-66
2024/03/04 06:11:34;;;;;;;3.35;2.30;;;;;;;;;;5081523;28;20064;-67
2024/03/04 06:14:00;;;;;;;6.30;1.60;;;;;;;;;;5073675;28;20046;-66
2024/03/04 06:16:25;;;;;;;2.80;1.98;;;;;;;;;;5078289;28;20032;-67
2024/03/04 06:18:50;;;;;;;2.53;1.73;;;;;;;;;;5081851;28;20047;-66
2024/03/04 06:21:16;;;;;;;3.55;2.20;;;;;;;;;;5081722;28;20036;-67
2024/03/04 06:23:41;;;;;;;3.22;1.33;;;;;;;;;;5083783;28;20024;-68
2024/03/04 06:26:11;;;;;;;2.38;1.75;;;;;;;;;;5087704;28;20537;-68
2024/03/04 06:28:36;;;;;;;2.03;1.02;;;;;;;;;;5075491;28;20081;-66
2024/03/04 06:31:02;;;;;;;2.08;1.65;;;;;;;;;;5072910;28;20036;-67
2024/03/04 06:33:27;;;;;;;3.22;1.40;;;;;;;;;;5074045;28;20044;-67
2024/03/04 06:35:53;;;;;;;10.02;1.52;;;;;;;;;;5078727;28;20043;-67
2024/03/04 06:38:18;;;;;;;2.15;1.40;;;;;;;;;;5084123;28;20481;-67
2024/03/04 06:40:44;;;;;;;4.40;2.50;;;;;;;;;;5080439;28;20166;-66
2024/03/04 06:43:10;;;;;;;3.15;1.88;;;;;;;;;;5104698;28;20059;-66
2024/03/04 06:45:38;;;;;;;2.20;1.75;;;;;;;;;;5086103;28;20059;-66
2024/03/04 06:48:04;;;;;;;3.67;1.58;;;;;;;;;;5077201;28;20548;-66
2024/03/04 06:50:30;;;;;;;3.53;2.20;;;;;;;;;;5084555;28;20040;-66
2024/03/04 06:52:56;;;;;;;2.88;1.70;;;;;;;;;;5077285;28;20118;-67
2024/03/04 06:55:21;;;;;;;2.60;1.65;;;;;;;;;;5083640;28;20613;-67
2024/03/04 06:57:46;;;;;;;4.32;1.85;;;;;;;;;;5078697;28;20043;-67
2024/03/04 07:00:13;;;;;;;3.58;2.22;;;;;;;;;;5076570;28;20044;-67
2024/03/04 07:02:39;;;;;;;5.05;2.50;;;;;;;;;;5072695;28;20037;-66
2024/03/04 07:05:04;;;;;;;4.10;1.85;;;;;;;;;;5081979;28;20033;-67
2024/03/04 07:07:29;;;;;;;4.25;2.72;;;;;;;;;;5082528;28;20028;-67
2024/03/04 07:09:55;;;;;;;4.57;1.90;;;;;;;;;;5072764;28;20043;-67
2024/03/04 07:12:20;;;;;;;3.78;2.22;;;;;;;;;;5068602;28;20048;-67
2024/03/04 07:14:45;;;;;;;4.45;2.03;;;;;;;;;;5068706;28;20097;-68
2024/03/04 07:17:11;;;;;;;5.38;2.72;;;;;;;;;;5071046;28;20033;-68
2024/03/04 07:19:36;;;;;;;5.22;2.65;;;;;;;;;;5081067;28;20114;-69
2024/03/04 07:22:02;;;;;;;3.30;2.25;;;;;;;;;;5083972;28;20024;-70
2024/03/04 07:24:27;;;;;;;5.20;1.77;;;;;;;;;;5077193;28;20040;-69
2024/03/04 07:26:53;;;;;;;3.97;2.20;;;;;;;;;;5076825;28;20064;-70
2024/03/04 07:29:18;;;;;;;6.20;2.78;;;;;;;;;;5079603;28;20055;-69
2024/03/04 07:31:45;;;;;;;6.00;3.05;;;;;;;;;;5078328;28;20078;-69
2024/03/04 07:34:10;;;;;;;6.18;2.20;;;;;;;;;;5083710;28;20043;-69
2024/03/04 07:36:35;;;;;;;5.15;2.75;;;;;;;;;;5077996;28;20383;-69
2024/03/04 07:39:03;;;;;;;4.30;2.20;;;;;;;;;;5072951;28;20051;-69
2024/03/04 07:41:29;;;;;;;5.03;2.40;;;;;;;;;;5081608;28;20563;-70
2024/03/04 07:43:55;;;;;;;5.78;2.80;;;;;;;;;;5074517;28;20120;-69
2024/03/04 07:46:21;;;;;;;5.60;3.13;;;;;;;;;;5069791;28;20052;-69
2024/03/04 07:48:46;;;;;;;5.32;2.10;;;;;;;;;;5076251;28;20536;-69
2024/03/04 07:51:12;;;;;;;5.18;2.85;;;;;;;;;;5074933;28;20029;-69
2024/03/04 07:53:37;;;;;;;4.47;2.13;;;;;;;;;;5083054;28;20088;-69
2024/03/04 07:56:03;;;;;;;4.10;2.13;;;;;;;;;;5064453;28;20054;-69
2024/03/04 07:58:28;;;;;;;4.10;2.20;;;;;;;;;;5068734;28;20648;-69
2024/03/04 08:00:54;;;;;;;6.03;2.03;;;;;;;;;;5068553;28;20138;-69
2024/03/04 08:03:19;;;;;;;6.80;2.97;;;;;;;;;;5072276;28;20044;-70
2024/03/04 08:05:45;;;;;;;7.13;2.63;;;;;;;;;;5076567;28;20064;-69
2024/03/04 08:08:10;;;;;;;5.65;3.10;;;;;;;;;;5072850;28;20615;-69
2024/03/04 08:10:38;;;;;;;6.72;3.20;;;;;;;;;;5062398;28;20158;-70
2024/03/04 08:13:03;;;;;;;7.78;2.90;;;;;;;;;;5082692;28;20052;-71
2024/03/04 08:15:29;;;;;;;5.40;3.03;;;;;;;;;;5068247;28;20121;-71
2024/03/04 08:17:54;;;;;;;5.68;2.50;;;;;;;;;;5070371;28;20032;-70
2024/03/04 08:20:21;;;;;;;4.45;2.40;;;;;;;;;;5071473;28;20188;-69
2024/03/04 08:22:48;;;;;;;4.82;2.30;;;;;;;;;;5071097;28;20044;-68
2024/03/04 08:25:13;;;;;;;8.50;2.63;;;;;;;;;;5060178;28;20055;-69
2024/03/04 08:27:38;;;;;;;6.45;2.70;;;;;;;;;;5071971;28;20025;-70
2024/03/04 08:30:04;;;;;;;4.75;2.45;;;;;;;;;;5085510;28;20513;-69
2024/03/04 08:32:30;;;;;;;6.45;2.97;;;;;;;;;;5085997;28;20468;-69
2024/03/04 08:34:55;;;;;;;9.52;3.25;;;;;;;;;;5084772;28;20032;-70
2024/03/04 08:37:20;;;;;;;5.00;2.83;;;;;;;;;;5075875;28;20047;-68
2024/03/04 08:39:47;;;;;;;5.30;2.90;;;;;;;;;;5076036;28;20044;-69
2024/03/04 08:42:12;;;;;;;7.38;3.08;;;;;;;;;;5081327;28;20037;-68
2024/03/04 08:44:38;;;;;;;8.13;3.70;;;;;;;;;;5087431;28;20044;-68
2024/03/04 08:47:03;;;;;;;5.57;3.10;;;;;;;;;;5085476;28;20047;-68
2024/03/04 08:49:28;;;;;;;9.23;3.53;;;;;;;;;;5082279;28;20078;-68
2024/03/04 08:51:54;;;;;;;9.57;4.35;;;;;;;;;;5072413;28;20032;-68
2024/03/04 08:54:19;;;;;;;7.47;3.47;;;;;;;;;;5087188;28;20036;-68
2024/03/04 08:56:45;;;;;;;7.07;3.55;;;;;;;;;;5086420;28;20024;-69
2024/03/04 08:59:10;;;;;;;8.23;3.25;;;;;;;;;;5089568;28;20048;-69
2024/03/04 09:01:35;;;;;;;10.65;3.83;;;;;;;;;;5084158;28;20529;-68
2024/03/04 09:04:01;;;;;;;12.57;4.30;;;;;;;;;;5091915;28;20695;-70
2024/03/04 09:06:26;;;;;;;13.65;4.50;;;;;;;;;;5076344;28;20040;-69
2024/03/04 09:08:51;;;;;;;10.50;4.95;;;;;;;;;;5085633;28;20561;-69
2024/03/04 09:11:17;;;;;;;6.95;4.30;;;;;;;;;;5074319;28;20028;-69
2024/03/04 09:13:43;;;;;;;7.38;4.40;;;;;;;;;;5091719;28;20415;-68
2024/03/04 09:16:08;;;;;;;10.70;4.15;;;;;;;;;;5079076;28;20044;-67
2024/03/04 09:18:35;;;;;;;7.78;4.90;;;;;;;;;;5076939;28;20103;-68
2024/03/04 09:21:01;;;;;;;11.50;5.07;;;;;;;;;;5076538;28;20044;-69
2024/03/04 09:23:26;;;;;;;8.00;4.30;;;;;;;;;;5076638;28;20048;-68
2024/03/04 09:25:52;;;;;;;8.63;4.35;;;;;;;;;;5084616;28;20104;-69
2024/03/04 09:28:17;;;;;;;7.65;4.38;;;;;;;;;;5079732;28;20039;-69
2024/03/04 09:30:42;;;;;;;6.68;4.15;;;;;;;;;;5080337;28;20040;-68
2024/03/04 09:33:08;;;;;;;7.88;4.32;;;;;;;;;;5073316;28;20371;-69
2024/03/04 09:35:34;;;;;;;12.23;4.97;;;;;;;;;;5081279;28;20086;-68
2024/03/04 09:37:59;;;;;;;9.82;4.57;;;;;;;;;;5077898;28;20037;-69
2024/03/04 09:40:25;;;;;;;7.82;4.22;;;;;;;;;;5085252;28;20536;-68
2024/03/04 09:42:50;;;;;;;7.22;4.53;;;;;;;;;;5078527;28;20051;-68
2024/03/04 09:45:19;;;;;;;16.15;5.28;;;;;;;;;;5074028;28;20047;-68
2024/03/04 09:47:49;;;;;;;10.00;4.45;;;;;;;;;;5079140;28;20582;-68
2024/03/04 09:50:16;;;;;;;8.70;4.57;;;;;;;;;;5079091;28;20032;-68
2024/03/04 09:52:43;;;;;;;10.88;4.03;;;;;;;;;;5076231;28;20387;-68
2024/03/04 09:55:10;;;;;;;9.40;4.30;;;;;;;;;;5086167;28;20028;-68
2024/03/04 09:57:35;;;;;;;10.15;4.25;;;;;;;;;;5063799;28;20102;-70
2024/03/04 10:00:02;;;;;;;7.72;4.28;;;;;;;;;;5071627;28;20048;-69
2024/03/04 10:02:29;;;;;;;10.73;4.03;;;;;;;;;;5060019;28;20036;-67
2024/03/04 10:04:55;;;;;;;8.23;4.25;;;;;;;;;;5070628;28;20048;-68
2024/03/04 10:07:20;;;;;;;7.65;4.75;;;;;;;;;;5066289;28;20075;-68
2024/03/04 10:09:46;;;;;;;11.07;4.85;;;;;;;;;;5075262;28;20589;-68
2024/03/04 10:12:11;;;;;;;8.02;4.72;;;;;;;;;;5082195;28;20044;-70
2024/03/04 10:14:59;;;;;;;11.40;5.15;;;;;;;;;;5086904;28;20040;-70
2024/03/04 10:17:26;;;;;;;7.80;4.10;;;;;;;;;;5071185;28;20044;-71
2024/03/04 10:20:02;;;;;;;9.88;4.90;;;;;;;;;;5067936;28;20490;-69
2024/03/04 10:22:36;;;;;;;8.98;4.25;;;;;;;;;;5076890;28;20044;-71
2024/03/04 10:25:05;;;;;;;9.40;4.55;;;;;;;;;;5064372;28;20128;-69
2024/03/04 10:27:31;;;;;;;11.73;4.75;;;;;;;;;;5059414;28;20036;-70
2024/03/04 10:30:13;;;;;;;11.50;5.00;;;;;;;;;;5068187;28;20460;-70
2024/03/04 10:32:46;;;;;;;9.48;5.53;;;;;;;;;;5078542;28;20524;-70
2024/03/04 10:35:11;;;;;;;10.35;4.28;;;;;;;;;;5082230;28;20032;-69
2024/03/04 10:37:37;;;;;;;13.35;4.50;;;;;;;;;;5078401;28;20390;-69
2024/03/04 10:40:04;;;;;;;9.82;4.40;;;;;;;;;;5078516;28;20097;-70
2024/03/04 10:42:29;;;;;;;8.65;4.38;;;;;;;;;;5080116;28;20106;-71
2024/03/04 10:44:56;;;;;;;8.85;4.10;;;;;;;;;;5082214;28;20118;-70
2024/03/04 10:47:25;;;;;;;10.05;3.75;;;;;;;;;;5075496;28;20075;-68
2024/03/04 10:49:50;;;;;;;8.88;3.25;;;;;;;;;;5081616;28;20028;-69
2024/03/04 10:52:19;;;;;;;7.65;0.93;;;;;;;;;;5084802;28;20039;-60
2024/03/04 10:54:48;;;;;;;1.13;0.70;;;;;;;;;;5070660;28;20522;-61
2024/03/04 10:57:30;;;;;;;1.83;0.65;;;;;;;;;;5078562;28;20036;-59
2024/03/04 11:00:10;;;;;;;3.38;0.88;;;;;;;;;;5077111;28;20043;-61
2024/03/04 11:02:55;;;;;;;1.67;0.63;;;;;;;;;;5077621;28;20031;-59
2024/03/04 11:05:22;;;;;;;1.20;0.60;;;;;;;;;;5069981;28;20681;-60
2024/03/04 11:07:49;;;;;;;3.72;0.60;;;;;;;;;;5069988;28;20482;-59
2024/03/04 11:10:20;;;;;;;1.55;0.73;;;;;;;;;;5068343;28;20189;-60
2024/03/04 11:12:53;;;;;;;2.10;0.80;;;;;;;;;;5071050;28;20558;-58
2024/03/04 11:15:20;;;;;;;2.15;0.75;;;;;;;;;;5071988;28;20051;-59
2024/03/04 11:17:50;;;;;;;2.55;0.60;;;;;;;;;;5059339;28;20550;-59
2024/03/04 11:20:18;;;;;;;3.78;0.80;;;;;;;;;;5066430;28;20029;-61
2024/03/04 11:22:45;;;;;;;1.60;0.70;;;;;;;;;;5068281;28;20048;-59
2024/03/04 11:25:10;;;;;;;1.00;0.70;;;;;;;;;;5073023;28;20121;-61
2024/03/04 11:27:36;;;;;;;1.77;0.90;;;;;;;;;;5068718;28;20094;-60
2024/03/04 11:30:01;;;;;;;2.05;1.05;;;;;;;;;;5073554;28;20043;-60
2024/03/04 11:32:29;;;;;;;3.30;0.80;;;;;;;;;;5079235;28;20635;-59
2024/03/04 11:35:11;;;;;;;3.22;0.70;;;;;;;;;;5056196;28;20059;-61
2024/03/04 11:37:50;;;;;;;2.05;1.00;;;;;;;;;;5076290;28;20543;-59
2024/03/04 11:40:18;;;;;;;1.30;0.80;;;;;;;;;;5077599;28;20069;-61
2024/03/04 11:42:45;;;;;;;1.75;0.70;;;;;;;;;;5062282;28;20039;-61
2024/03/04 11:45:20;;;;;;;1.73;0.80;;;;;;;;;;5067805;28;20033;-60
2024/03/04 11:47:50;;;;;;;2.22;0.70;;;;;;;;;;5068561;28;20097;-59
2024/03/04 11:50:40;;;;;;;0.93;0.55;;;;;;;;;;5073604;28;20043;-60
2024/03/04 11:53:28;;;;;;;2.38;0.65;;;;;;;;;;5069081;28;20041;-60
2024/03/04 11:55:54;;;;;;;1.73;0.65;;;;;;;;;;5063147;28;20131;-60
2024/03/04 11:58:20;;;;;;;3.05;0.68;;;;;;;;;;5070249;28;20043;-61
2024/03/04 12:00:47;;;;;;;1.10;0.55;;;;;;;;;;5079136;28;20043;-60
2024/03/04 12:03:14;;;;;;;1.92;0.80;;;;;;;;;;5071667;28;20116;-61
2024/03/04 12:05:40;;;;;;;1.40;0.63;;;;;;;;;;5071248;28;20040;-59
2024/03/04 12:08:07;;;;;;;2.42;0.50;;;;;;;;;;5067889;28;20043;-59
2024/03/04 12:10:33;;;;;;;2.85;0.60;;;;;;;;;;5072110;28;20041;-61
2024/03/04 12:12:59;;;;;;;1.98;0.77;;;;;;;;;;5083124;28;20036;-60
2024/03/04 12:15:24;;;;;;;0.80;0.60;;;;;;;;;;5080523;28;20032;-61
2024/03/04 12:17:49;;;;;;;1.67;0.65;;;;;;;;;;5074554;28;20032;-61
2024/03/04 12:20:15;;;;;;;2.60;0.63;;;;;;;;;;5082752;28;20085;-60
2024/03/04 12:22:40;;;;;;;1.15;0.60;;;;;;;;;;5077196;28;20609;-60
2024/03/04 12:25:07;;;;;;;1.30;0.70;;;;;;;;;;5073366;28;20043;-60
2024/03/04 12:27:34;;;;;;;1.73;0.70;;;;;;;;;;5080770;28;20115;-60
2024/03/04 12:30:19;;;;;;;3.85;0.80;;;;;;;;;;5072957;28;20047;-59
2024/03/04 12:32:48;;;;;;;1.15;0.50;;;;;;;;;;5073146;28;20047;-60
2024/03/04 12:35:28;;;;;;;0.73;0.50;;;;;;;;;;5069147;28;20491;-59
2024/03/04 12:37:55;;;;;;;2.95;0.60;;;;;;;;;;5083901;28;20032;-59
2024/03/04 12:40:22;;;;;;;0.63;0.40;;;;;;;;;;5074801;28;20040;-60
2024/03/04 12:42:58;;;;;;;2.75;0.57;;;;;;;;;;5080087;28;20036;-59
2024/03/04 12:45:25;;;;;;;1.08;0.60;;;;;;;;;;5071707;28;20036;-60
2024/03/04 12:47:52;;;;;;;1.08;0.55;;;;;;;;;;5077079;28;20044;-60
2024/03/04 12:50:18;;;;;;;2.17;0.60;;;;;;;;;;5069236;28;20066;-60
2024/03/04 12:52:44;;;;;;;1.98;0.60;;;;;;;;;;5074713;28;20040;-61
2024/03/04 12:55:16;;;;;;;1.35;0.50;;;;;;;;;;5073694;28;20039;-61
2024/03/04 12:57:42;;;;;;;1.03;0.67;;;;;;;;;;5060401;28;20031;-59
2024/03/04 13:00:12;;;;;;;1.65;0.63;;;;;;;;;;5077930;28;20063;-60
2024/03/04 13:02:39;;;;;;;0.55;0.35;;;;;;;;;;5070268;28;20058;-60
2024/03/04 13:05:05;;;;;;;1.17;0.65;;;;;;;;;;5070890;28;20032;-60
2024/03/04 13:07:31;;;;;;;1.58;0.50;;;;;;;;;;5073905;28;20499;-61
2024/03/04 13:09:56;;;;;;;2.60;0.50;;;;;;;;;;5068925;28;20612;-60
2024/03/04 13:12:21;;;;;;;1.38;0.50;;;;;;;;;;5072945;28;20064;-58
2024/03/04 13:14:46;;;;;;;1.35;0.60;;;;;;;;;;5076006;28;20036;-60
2024/03/04 13:17:12;;;;;;;0.80;0.60;;;;;;;;;;5075528;28;20032;-59
2024/03/04 13:19:38;;;;;;;1.95;0.57;;;;;;;;;;5070767;28;20067;-61
2024/03/04 13:22:04;;;;;;;1.15;0.55;;;;;;;;;;5086688;28;20071;-60
2024/03/04 13:24:29;;;;;;;3.83;0.60;;;;;;;;;;5074498;28;20609;-60
2024/03/04 13:26:55;;;;;;;3.45;0.90;;;;;;;;;;5066442;28;20032;-59
2024/03/04 13:29:20;;;;;;;2.22;0.70;;;;;;;;;;5068388;28;20041;-60
2024/03/04 13:31:46;;;;;;;0.63;0.40;;;;;;;;;;5076957;28;20086;-59
2024/03/04 13:34:11;;;;;;;0.63;0.40;;;;;;;;;;5078057;28;20028;-60
2024/03/04 13:36:37;;;;;;;1.35;0.43;;;;;;;;;;5071875;28;20500;-60
2024/03/04 13:39:02;;;;;;;2.65;0.65;;;;;;;;;;5068123;28;20698;-60
2024/03/04 13:41:27;;;;;;;1.58;0.57;;;;;;;;;;5071533;28;20035;-59
2024/03/04 13:43:53;;;;;;;0.88;0.38;;;;;;;;;;5074383;28;20418;-60
2024/03/04 13:46:18;;;;;;;0.52;0.40;;;;;;;;;;5075342;28;20067;-58
2024/03/04 13:48:43;;;;;;;0.98;0.45;;;;;;;;;;5076129;28;20063;-58
2024/03/04 13:51:09;;;;;;;0.65;0.43;;;;;;;;;;5083929;28;20044;-60
2024/03/04 13:53:36;;;;;;;1.17;0.60;;;;;;;;;;5077058;28;20044;-59
2024/03/04 13:56:02;;;;;;;2.25;0.50;;;;;;;;;;5076908;28;20050;-59
2024/03/04 13:58:27;;;;;;;0.95;0.40;;;;;;;;;;5081250;28;20120;-60
2024/03/04 14:00:53;;;;;;;2.05;0.57;;;;;;;;;;5078203;28;20028;-60
2024/03/04 14:03:19;;;;;;;0.88;0.50;;;;;;;;;;5076597;28;20024;-59
2024/03/04 14:05:44;;;;;;;0.70;0.45;;;;;;;;;;5081589;28;20161;-60
2024/03/04 14:08:09;;;;;;;3.45;0.52;;;;;;;;;;5080866;28;20455;-59
2024/03/04 14:10:37;;;;;;;0.32;0.30;;;;;;;;;;5079898;28;20458;-59
2024/03/04 14:13:03;;;;;;;1.17;0.50;;;;;;;;;;5078285;28;20540;-60
2024/03/04 14:15:28;;;;;;;0.80;0.43;;;;;;;;;;5077015;28;20051;-61
2024/03/04 14:17:54;;;;;;;0.65;0.38;;;;;;;;;;5080021;28;20471;-60
2024/03/04 14:20:19;;;;;;;1.23;0.40;;;;;;;;;;5074894;28;20583;-60
2024/03/04 14:22:44;;;;;;;0.65;0.40;;;;;;;;;;5077959;28;20046;-59
2024/03/04 14:25:10;;;;;;;1.02;0.43;;;;;;;;;;5083521;28;20028;-60
2024/03/04 14:27:35;;;;;;;1.38;0.47;;;;;;;;;;5081134;28;20113;-57
2024/03/04 14:30:00;;;;;;;0.50;0.40;;;;;;;;;;5085606;28;20073;-61
2024/03/04 14:32:26;;;;;;;0.55;0.30;;;;;;;;;;5070530;28;20048;-60
2024/03/04 14:34:53;;;;;;;0.63;0.40;;;;;;;;;;5072721;28;20036;-58
2024/03/04 14:37:19;;;;;;;1.05;0.50;;;;;;;;;;5081192;28;20511;-60
2024/03/04 14:39:44;;;;;;;1.17;0.38;;;;;;;;;;5082617;28;20062;-60